createdAt,value
2022-07-28T00:00:20.781Z,18.53
2022-07-28T00:01:24.665Z,18.48
2022-07-28T00:02:22.018Z,18.51
2022-07-28T00:03:23.336Z,18.48
2022-07-28T00:04:23.651Z,18.53
2022-07-28T00:05:23.850Z,18.53
2022-07-28T00:06:23.755Z,18.51
2022-07-28T00:07:24.956Z,18.48
2022-07-28T00:08:25.460Z,18.49
2022-07-28T00:09:25.667Z,18.41
2022-07-28T00:10:26.947Z,18.48
2022-07-28T00:11:27.543Z,18.43
2022-07-28T00:12:28.516Z,18.46
2022-07-28T00:13:28.994Z,18.51
2022-07-28T00:14:29.920Z,18.42
2022-07-28T00:15:29.839Z,18.46
2022-07-28T00:16:30.743Z,18.49
2022-07-28T00:17:30.168Z,18.51
2022-07-28T00:18:31.374Z,18.42
2022-07-28T00:19:31.298Z,18.42
2022-07-28T00:20:31.806Z,18.39
2022-07-28T00:21:31.759Z,18.39
2022-07-28T00:22:32.390Z,18.45
2022-07-28T00:23:44.399Z,18.42
2022-07-28T00:24:34.597Z,18.39
2022-07-28T00:25:34.519Z,18.43
2022-07-28T00:26:34.739Z,18.28
2022-07-28T00:27:35.427Z,18.27
2022-07-28T00:28:36.078Z,18.27
2022-07-28T00:29:55.308Z,18.31
2022-07-28T00:30:37.168Z,18.31
2022-07-28T00:31:38.082Z,18.21
2022-07-28T00:32:38.919Z,18.24
2022-07-28T00:33:38.395Z,18.28
2022-07-28T00:34:43.029Z,18.16
2022-07-28T00:35:39.452Z,18.28
2022-07-28T00:36:40.140Z,18.13
2022-07-28T00:37:40.470Z,18.19
2022-07-28T00:38:45.910Z,18.19
2022-07-28T00:39:42.821Z,18.26
2022-07-28T00:40:43.377Z,18.18
2022-07-28T00:41:43.576Z,18.16
2022-07-28T00:42:43.979Z,18.16
2022-07-28T00:43:43.729Z,18.11
2022-07-28T00:44:43.648Z,18.09
2022-07-28T00:45:44.857Z,18.08
2022-07-28T00:46:45.306Z,18
2022-07-28T00:47:45.478Z,18.05
2022-07-28T00:48:46.200Z,18
2022-07-28T00:49:46.412Z,18.02
2022-07-28T00:50:46.338Z,18.06
2022-07-28T00:51:46.539Z,17.98
2022-07-28T00:52:47.754Z,18.08
2022-07-28T00:53:48.262Z,17.98
2022-07-28T00:54:48.466Z,18.05
2022-07-28T00:56:12.330Z,18.09
2022-07-28T00:56:49.380Z,18.02
2022-07-28T00:57:50.306Z,18.06
2022-07-28T00:58:51.231Z,18
2022-07-28T00:59:52.438Z,17.97
2022-07-28T01:00:52.661Z,18
2022-07-28T01:01:54.757Z,18
2022-07-28T01:02:53.757Z,17.98
2022-07-28T01:03:53.366Z,18
2022-07-28T01:04:53.967Z,17.95
2022-07-28T01:05:54.164Z,17.98
2022-07-28T01:06:55.362Z,17.97
2022-07-28T01:07:55.284Z,17.94
2022-07-28T01:08:55.784Z,17.9
2022-07-28T01:09:56.693Z,17.9
2022-07-28T01:10:56.643Z,17.95
2022-07-28T01:11:57.845Z,17.9
2022-07-28T01:12:58.067Z,17.8
2022-07-28T01:13:58.442Z,17.94
2022-07-28T01:14:58.881Z,17.79
2022-07-28T01:15:59.203Z,17.76
2022-07-28T01:16:58.726Z,17.82
2022-07-28T01:18:00.219Z,17.78
2022-07-28T01:19:00.845Z,17.73
2022-07-28T01:20:01.072Z,17.71
2022-07-28T01:21:02.276Z,17.71
2022-07-28T01:22:02.514Z,17.63
2022-07-28T01:23:02.740Z,17.68
2022-07-28T01:24:03.028Z,17.75
2022-07-28T01:25:03.666Z,17.66
2022-07-28T01:26:04.872Z,17.71
2022-07-28T01:27:04.788Z,17.6
2022-07-28T01:28:05.708Z,17.65
2022-07-28T01:29:06.631Z,17.68
2022-07-28T01:30:07.534Z,17.68
2022-07-28T01:31:08.632Z,17.63
2022-07-28T01:32:09.112Z,17.6
2022-07-28T01:33:09.615Z,17.68
2022-07-28T01:34:09.637Z,17.63
2022-07-28T01:35:11.657Z,17.57
2022-07-28T01:36:11.005Z,17.65
2022-07-28T01:37:11.930Z,17.53
2022-07-28T01:38:13.246Z,17.56
2022-07-28T01:39:13.443Z,17.52
2022-07-28T01:40:14.354Z,17.49
2022-07-28T01:41:14.741Z,17.53
2022-07-28T01:42:14.865Z,17.49
2022-07-28T01:43:19.163Z,17.49
2022-07-28T01:44:17.490Z,17.53
2022-07-28T01:45:16.974Z,17.47
2022-07-28T01:46:17.410Z,17.47
2022-07-28T01:47:17.503Z,17.38
2022-07-28T01:48:18.406Z,17.41
2022-07-28T01:49:19.624Z,17.44
2022-07-28T01:50:19.643Z,17.34
2022-07-28T01:51:20.144Z,17.38
2022-07-28T01:52:20.371Z,17.3
2022-07-28T01:53:20.885Z,17.35
2022-07-28T01:54:22.072Z,17.37
2022-07-28T01:55:22.272Z,17.37
2022-07-28T01:56:22.902Z,17.35
2022-07-28T01:57:23.843Z,17.37
2022-07-28T01:58:24.866Z,17.28
2022-07-28T01:59:24.767Z,17.22
2022-07-28T02:00:28.327Z,17.19
2022-07-28T02:01:26.406Z,17.22
2022-07-28T02:02:26.796Z,17.17
2022-07-28T02:03:27.722Z,17.16
2022-07-28T02:04:28.913Z,17.19
2022-07-28T02:05:28.526Z,17.07
2022-07-28T02:06:28.551Z,17.16
2022-07-28T02:07:28.753Z,17.1
2022-07-28T02:08:28.679Z,17.14
2022-07-28T02:09:29.620Z,17.1
2022-07-28T02:10:29.526Z,17.17
2022-07-28T02:11:30.457Z,17.09
2022-07-28T02:12:30.656Z,17.02
2022-07-28T02:13:31.234Z,17.09
2022-07-28T02:14:30.803Z,16.98
2022-07-28T02:15:31.813Z,17.1
2022-07-28T02:16:32.415Z,17.07
2022-07-28T02:17:32.622Z,17.01
2022-07-28T02:18:33.399Z,17.12
2022-07-28T02:19:33.033Z,17.12
2022-07-28T02:20:33.956Z,17.07
2022-07-28T02:21:36.878Z,16.99
2022-07-28T02:22:34.223Z,17.02
2022-07-28T02:23:35.868Z,16.98
2022-07-28T02:24:36.538Z,17.1
2022-07-28T02:25:37.189Z,17.02
2022-07-28T02:26:37.409Z,17.14
2022-07-28T02:27:38.337Z,17.09
2022-07-28T02:28:40.049Z,17.07
2022-07-28T02:29:56.252Z,17.05
2022-07-28T02:30:39.839Z,16.99
2022-07-28T02:31:42.567Z,17.01
2022-07-28T02:32:45.466Z,16.99
2022-07-28T02:34:08.853Z,16.99
2022-07-28T02:35:05.274Z,17.01
2022-07-28T02:36:06.944Z,16.98
2022-07-28T02:37:07.336Z,16.99
2022-07-28T02:38:06.293Z,16.94
2022-07-28T02:39:06.495Z,16.94
2022-07-28T02:40:06.638Z,16.95
2022-07-28T02:41:07.556Z,16.89
2022-07-28T02:42:08.467Z,16.94
2022-07-28T02:43:08.366Z,16.89
2022-07-28T02:44:09.062Z,16.94
2022-07-28T02:45:09.321Z,16.89
2022-07-28T02:46:09.830Z,16.95
2022-07-28T02:47:09.687Z,16.92
2022-07-28T02:48:10.898Z,16.8
2022-07-28T02:49:11.024Z,16.84
2022-07-28T02:50:11.805Z,16.84
2022-07-28T02:51:12.023Z,16.84
2022-07-28T02:52:12.528Z,16.91
2022-07-28T02:53:21.950Z,16.91
2022-07-28T02:54:13.405Z,16.86
2022-07-28T02:55:13.155Z,16.82
2022-07-28T02:56:14.370Z,16.82
2022-07-28T02:57:14.573Z,16.8
2022-07-28T02:58:15.081Z,16.84
2022-07-28T02:59:15.586Z,16.86
2022-07-28T03:00:15.512Z,16.86
2022-07-28T03:01:15.996Z,16.82
2022-07-28T03:02:16.776Z,16.77
2022-07-28T03:03:16.975Z,16.82
2022-07-28T03:04:18.050Z,16.77
2022-07-28T03:05:17.834Z,16.79
2022-07-28T03:06:17.981Z,16.73
2022-07-28T03:07:18.315Z,16.77
2022-07-28T03:08:18.584Z,16.8
2022-07-28T03:09:19.320Z,16.79
2022-07-28T03:10:34.898Z,16.8
2022-07-28T03:11:20.887Z,16.8
2022-07-28T03:12:22.087Z,16.83
2022-07-28T03:13:22.295Z,16.83
2022-07-28T03:14:23.500Z,16.83
2022-07-28T03:15:24.507Z,16.83
2022-07-28T03:16:24.364Z,16.83
2022-07-28T03:17:25.046Z,16.72
2022-07-28T03:18:25.698Z,16.76
2022-07-28T03:19:26.205Z,16.69
2022-07-28T03:20:26.134Z,16.72
2022-07-28T03:21:27.341Z,16.62
2022-07-28T03:22:27.563Z,16.72
2022-07-28T03:23:28.192Z,16.66
2022-07-28T03:24:29.688Z,16.69
2022-07-28T03:25:30.501Z,16.64
2022-07-28T03:26:30.893Z,16.62
2022-07-28T03:27:32.100Z,16.62
2022-07-28T03:28:32.335Z,16.57
2022-07-28T03:29:32.532Z,16.57
2022-07-28T03:30:32.906Z,16.58
2022-07-28T03:31:33.283Z,16.58
2022-07-28T03:32:33.245Z,16.59
2022-07-28T03:33:34.195Z,16.61
2022-07-28T03:34:35.691Z,16.55
2022-07-28T03:35:36.393Z,16.54
2022-07-28T03:36:36.893Z,16.59
2022-07-28T03:37:37.801Z,16.59
2022-07-28T03:38:38.026Z,16.58
2022-07-28T03:39:38.246Z,16.58
2022-07-28T03:40:39.154Z,16.58
2022-07-28T03:41:39.279Z,16.58
2022-07-28T03:42:39.175Z,16.51
2022-07-28T03:43:39.395Z,16.51
2022-07-28T03:44:39.991Z,16.47
2022-07-28T03:45:41.472Z,16.51
2022-07-28T03:46:40.909Z,16.47
2022-07-28T03:47:40.538Z,16.57
2022-07-28T03:48:41.936Z,16.47
2022-07-28T03:49:42.078Z,16.57
2022-07-28T03:50:43.301Z,16.57
2022-07-28T03:51:43.627Z,16.54
2022-07-28T03:52:44.848Z,16.51
2022-07-28T03:53:45.356Z,16.57
2022-07-28T03:54:45.799Z,16.58
2022-07-28T03:55:46.544Z,16.49
2022-07-28T03:56:46.764Z,16.55
2022-07-28T03:57:46.712Z,16.57
2022-07-28T03:58:47.658Z,16.49
2022-07-28T03:59:47.850Z,16.54
2022-07-28T04:00:49.015Z,16.59
2022-07-28T04:01:50.340Z,16.62
2022-07-28T04:02:50.283Z,16.55
2022-07-28T04:03:50.960Z,16.57
2022-07-28T04:04:52.498Z,16.59
2022-07-28T04:05:53.079Z,16.51
2022-07-28T04:06:53.007Z,16.64
2022-07-28T04:07:53.212Z,16.65
2022-07-28T04:08:54.413Z,16.59
2022-07-28T04:09:54.912Z,16.58
2022-07-28T04:10:55.150Z,16.62
2022-07-28T04:11:55.079Z,16.65
2022-07-28T04:12:55.633Z,16.59
2022-07-28T04:13:55.806Z,16.62
2022-07-28T04:14:56.042Z,16.64
2022-07-28T04:15:56.929Z,16.58
2022-07-28T04:16:57.399Z,16.59
2022-07-28T04:17:57.503Z,16.58
2022-07-28T04:18:57.720Z,16.61
2022-07-28T04:19:58.201Z,16.59
2022-07-28T04:20:58.703Z,16.59
2022-07-28T04:21:58.678Z,16.55
2022-07-28T04:22:59.499Z,16.55
2022-07-28T04:24:05.775Z,16.62
2022-07-28T04:25:00.500Z,16.59
2022-07-28T04:26:00.955Z,16.57
2022-07-28T04:27:01.291Z,16.51
2022-07-28T04:28:05.939Z,16.47
2022-07-28T04:29:03.954Z,16.54
2022-07-28T04:30:03.559Z,16.46
2022-07-28T04:31:05.011Z,16.4
2022-07-28T04:32:04.565Z,16.43
2022-07-28T04:33:05.073Z,16.37
2022-07-28T04:34:05.310Z,16.43
2022-07-28T04:35:05.127Z,16.4
2022-07-28T04:36:05.826Z,16.46
2022-07-28T04:37:06.327Z,16.43
2022-07-28T04:38:06.973Z,16.4
2022-07-28T04:39:07.599Z,16.4
2022-07-28T04:40:08.111Z,16.44
2022-07-28T04:41:08.444Z,16.41
2022-07-28T04:42:08.641Z,16.37
2022-07-28T04:43:10.065Z,16.41
2022-07-28T04:44:10.810Z,16.39
2022-07-28T04:45:11.596Z,16.4
2022-07-28T04:46:15.708Z,16.39
2022-07-28T04:47:13.404Z,16.39
2022-07-28T04:48:13.295Z,16.4
2022-07-28T04:49:14.212Z,16.47
2022-07-28T04:50:15.169Z,16.4
2022-07-28T04:51:15.084Z,16.47
2022-07-28T04:52:16.312Z,16.43
2022-07-28T04:53:16.812Z,16.5
2022-07-28T04:54:26.445Z,16.51
2022-07-28T04:55:18.012Z,16.57
2022-07-28T04:56:19.351Z,16.62
2022-07-28T04:57:22.287Z,16.55
2022-07-28T04:58:20.038Z,16.51
2022-07-28T04:59:22.433Z,16.64
2022-07-28T05:00:23.302Z,16.65
2022-07-28T05:01:21.907Z,16.57
2022-07-28T05:02:22.524Z,16.61
2022-07-28T05:03:23.028Z,16.69
2022-07-28T05:04:24.097Z,16.64
2022-07-28T05:05:24.059Z,16.61
2022-07-28T05:06:24.122Z,16.65
2022-07-28T05:07:24.776Z,16.66
2022-07-28T05:08:26.764Z,16.76
2022-07-28T05:09:26.090Z,16.86
2022-07-28T05:10:26.297Z,16.79
2022-07-28T05:11:27.221Z,16.77
2022-07-28T05:12:28.127Z,16.8
2022-07-28T05:13:34.574Z,16.92
2022-07-28T05:14:29.479Z,16.8
2022-07-28T05:15:29.686Z,16.89
2022-07-28T05:16:30.061Z,16.89
2022-07-28T05:17:30.331Z,16.82
2022-07-28T05:18:31.236Z,16.8
2022-07-28T05:19:31.733Z,16.82
2022-07-28T05:20:32.661Z,16.94
2022-07-28T05:21:32.313Z,16.89
2022-07-28T05:22:32.946Z,16.86
2022-07-28T05:23:34.453Z,16.94
2022-07-28T05:24:35.355Z,16.91
2022-07-28T05:25:35.855Z,16.91
2022-07-28T05:26:36.162Z,16.94
2022-07-28T05:27:36.368Z,17.01
2022-07-28T05:28:36.573Z,17.04
2022-07-28T05:29:53.402Z,17.12
2022-07-28T05:30:37.908Z,17.1
2022-07-28T05:31:38.679Z,17.14
2022-07-28T05:32:38.750Z,17.16
2022-07-28T05:33:39.784Z,17.12
2022-07-28T05:34:39.922Z,17.09
2022-07-28T05:35:40.601Z,17.09
2022-07-28T05:36:40.779Z,17.22
2022-07-28T05:37:41.998Z,17.2
2022-07-28T05:38:42.922Z,17.23
2022-07-28T05:39:43.146Z,17.35
2022-07-28T05:40:44.355Z,17.35
2022-07-28T05:41:44.576Z,17.34
2022-07-28T05:42:45.522Z,17.35
2022-07-28T05:43:45.866Z,17.39
2022-07-28T05:44:46.795Z,17.38
2022-07-28T05:45:48.191Z,17.52
2022-07-28T05:46:48.238Z,17.56
2022-07-28T05:47:49.453Z,17.52
2022-07-28T05:48:49.635Z,17.69
2022-07-28T05:49:50.062Z,17.66
2022-07-28T05:50:50.390Z,17.75
2022-07-28T05:51:50.616Z,17.78
2022-07-28T05:52:52.023Z,17.79
2022-07-28T05:53:51.951Z,17.8
2022-07-28T05:54:52.877Z,17.86
2022-07-28T05:56:06.606Z,17.88
2022-07-28T05:56:56.927Z,17.95
2022-07-28T05:57:57.929Z,18.02
2022-07-28T05:58:58.135Z,18.12
2022-07-28T05:59:58.463Z,18.05
2022-07-28T06:00:59.642Z,18.15
2022-07-28T06:02:00.766Z,18.18
2022-07-28T06:03:00.876Z,18.15
2022-07-28T06:04:33.254Z,18.27
2022-07-28T06:05:02.620Z,18.24
2022-07-28T06:06:20.834Z,18.31
2022-07-28T06:07:09.113Z,18.26
2022-07-28T06:08:09.331Z,18.45
2022-07-28T06:09:09.682Z,18.43
2022-07-28T06:10:10.902Z,18.43
2022-07-28T06:11:23.083Z,18.43
2022-07-28T06:12:12.359Z,18.42
2022-07-28T06:13:13.577Z,18.36
2022-07-28T06:14:14.630Z,18.46
2022-07-28T06:15:13.967Z,18.43
2022-07-28T06:16:19.035Z,18.43
2022-07-28T06:17:14.711Z,18.52
2022-07-28T06:18:15.215Z,18.46
2022-07-28T06:19:15.417Z,18.41
2022-07-28T06:20:16.205Z,18.51
2022-07-28T06:21:16.882Z,18.51
2022-07-28T06:22:16.751Z,18.61
2022-07-28T06:23:17.662Z,18.61
2022-07-28T06:24:18.622Z,18.67
2022-07-28T06:25:18.533Z,18.64
2022-07-28T06:26:19.028Z,18.71
2022-07-28T06:27:20.071Z,18.67
2022-07-28T06:28:20.568Z,18.6
2022-07-28T06:29:20.795Z,18.6
2022-07-28T06:30:20.737Z,18.71
2022-07-28T06:31:21.398Z,18.7
2022-07-28T06:32:21.219Z,18.76
2022-07-28T06:33:23.407Z,18.92
2022-07-28T06:34:23.298Z,18.86
2022-07-28T06:35:22.929Z,19.01
2022-07-28T06:36:23.237Z,19.09
2022-07-28T06:37:24.557Z,19.17
2022-07-28T06:38:25.680Z,19.2
2022-07-28T06:39:27.781Z,19.24
2022-07-28T06:40:26.332Z,19.29
2022-07-28T06:41:26.884Z,19.29
2022-07-28T06:42:27.809Z,19.32
2022-07-28T06:43:28.034Z,19.38
2022-07-28T06:44:59.166Z,19.3
2022-07-28T06:45:27.685Z,19.34
2022-07-28T06:46:28.259Z,19.32
2022-07-28T06:47:28.426Z,19.37
2022-07-28T06:48:33.042Z,19.44
2022-07-28T06:49:30.534Z,19.44
2022-07-28T06:50:32.809Z,19.52
2022-07-28T06:51:31.301Z,19.59
2022-07-28T06:52:31.521Z,19.57
2022-07-28T06:53:35.235Z,19.63
2022-07-28T06:54:33.263Z,19.82
2022-07-28T06:55:41.886Z,19.9
2022-07-28T06:56:33.413Z,19.81
2022-07-28T06:57:39.323Z,19.89
2022-07-28T06:58:35.232Z,19.92
2022-07-28T06:59:35.695Z,19.93
2022-07-28T07:00:36.619Z,20.08
2022-07-28T07:01:37.406Z,20.17
2022-07-28T07:02:37.612Z,20.27
2022-07-28T07:03:37.829Z,20.27
2022-07-28T07:04:38.271Z,20.27
2022-07-28T07:05:38.717Z,20.39
2022-07-28T07:06:39.814Z,20.33
2022-07-28T07:07:43.976Z,20.52
2022-07-28T07:08:39.930Z,20.63
2022-07-28T07:09:43.065Z,20.56
2022-07-28T07:10:41.975Z,20.59
2022-07-28T07:11:42.218Z,20.52
2022-07-28T07:12:42.552Z,20.48
2022-07-28T07:13:43.523Z,20.52
2022-07-28T07:14:44.155Z,20.48
2022-07-28T07:15:44.365Z,20.52
2022-07-28T07:16:44.916Z,20.63
2022-07-28T07:17:45.329Z,20.71
2022-07-28T07:18:46.137Z,20.73
2022-07-28T07:19:46.495Z,20.73
2022-07-28T07:20:46.700Z,20.78
2022-07-28T07:21:46.971Z,20.96
2022-07-28T07:22:48.185Z,21.03
2022-07-28T07:23:48.704Z,21.08
2022-07-28T07:24:56.800Z,21.14
2022-07-28T07:25:48.577Z,21.11
2022-07-28T07:26:50.085Z,21.07
2022-07-28T07:27:50.557Z,21.14
2022-07-28T07:28:51.771Z,21.15
2022-07-28T07:29:51.998Z,21.19
2022-07-28T07:30:53.242Z,21.23
2022-07-28T07:31:58.428Z,21.32
2022-07-28T07:32:54.078Z,21.35
2022-07-28T07:33:53.893Z,21.48
2022-07-28T07:34:54.401Z,21.6
2022-07-28T07:35:55.347Z,21.54
2022-07-28T07:36:56.026Z,21.59
2022-07-28T07:37:56.487Z,21.68
2022-07-28T07:38:57.705Z,21.59
2022-07-28T07:39:57.935Z,21.62
2022-07-28T07:40:58.854Z,21.69
2022-07-28T07:42:00.803Z,21.65
2022-07-28T07:42:59.435Z,21.62
2022-07-28T07:44:00.661Z,21.62
2022-07-28T07:45:01.299Z,21.65
2022-07-28T07:46:01.803Z,21.59
2022-07-28T07:47:02.738Z,21.66
2022-07-28T07:48:03.074Z,21.66
2022-07-28T07:49:03.495Z,21.78
2022-07-28T07:50:05.208Z,21.89
2022-07-28T07:51:04.129Z,21.97
2022-07-28T07:52:05.242Z,22.14
2022-07-28T07:53:05.188Z,22.08
2022-07-28T07:54:05.819Z,22.04
2022-07-28T07:55:06.837Z,22.18
2022-07-28T07:56:07.358Z,22.07
2022-07-28T07:57:07.276Z,22.12
2022-07-28T07:58:08.305Z,22.07
2022-07-28T07:59:09.257Z,22.26
2022-07-28T08:00:31.078Z,22.43
2022-07-28T08:01:11.024Z,22.41
2022-07-28T08:02:11.661Z,22.47
2022-07-28T08:03:22.810Z,22.56
2022-07-28T08:04:16.065Z,22.58
2022-07-28T08:05:18.784Z,22.56
2022-07-28T08:06:16.267Z,22.67
2022-07-28T08:07:15.399Z,22.73
2022-07-28T08:08:15.871Z,22.77
2022-07-28T08:09:15.792Z,22.91
2022-07-28T08:10:15.728Z,22.8
2022-07-28T08:11:17.082Z,22.88
2022-07-28T08:12:25.671Z,22.88
2022-07-28T08:13:19.005Z,22.74
2022-07-28T08:14:19.799Z,22.74
2022-07-28T08:15:20.028Z,22.65
2022-07-28T08:16:20.928Z,22.61
2022-07-28T08:17:26.436Z,22.71
2022-07-28T08:18:21.524Z,22.76
2022-07-28T08:19:27.338Z,22.83
2022-07-28T08:20:21.981Z,22.88
2022-07-28T08:21:22.505Z,22.96
2022-07-28T08:22:22.410Z,23.06
2022-07-28T08:23:28.894Z,23.25
2022-07-28T08:24:39.941Z,23.42
2022-07-28T08:25:25.176Z,23.52
2022-07-28T08:26:25.703Z,23.56
2022-07-28T08:27:25.649Z,23.64
2022-07-28T08:28:27.153Z,23.69
2022-07-28T08:29:27.713Z,23.64
2022-07-28T08:30:33.463Z,23.7
2022-07-28T08:31:28.836Z,23.71
2022-07-28T08:32:29.442Z,23.71
2022-07-28T08:33:29.381Z,23.89
2022-07-28T08:34:38.859Z,24.06
2022-07-28T08:35:40.574Z,24.11
2022-07-28T08:36:31.486Z,24.24
2022-07-28T08:37:32.114Z,24.28
2022-07-28T08:38:32.876Z,24.28
2022-07-28T08:39:34.096Z,24.22
2022-07-28T08:40:34.399Z,24.26
2022-07-28T08:41:39.919Z,24.26
2022-07-28T08:42:35.834Z,24.18
2022-07-28T08:43:36.621Z,24.18
2022-07-28T08:44:37.556Z,24.16
2022-07-28T08:45:43.022Z,24.28
2022-07-28T08:46:39.417Z,24.19
2022-07-28T08:48:11.875Z,23.95
2022-07-28T08:48:59.138Z,23.94
2022-07-28T08:49:59.624Z,23.88
2022-07-28T08:51:00.135Z,24.01
2022-07-28T08:52:01.073Z,23.94
2022-07-28T08:53:01.588Z,23.95
2022-07-28T08:54:01.717Z,24.01
2022-07-28T08:55:02.389Z,23.91
2022-07-28T08:56:03.692Z,23.88
2022-07-28T08:57:03.629Z,23.88
2022-07-28T08:58:05.273Z,23.84
2022-07-28T08:59:06.051Z,23.85
2022-07-28T09:00:06.719Z,23.82
2022-07-28T09:01:07.724Z,23.82
2022-07-28T09:02:08.361Z,23.94
2022-07-28T09:03:08.883Z,24.03
2022-07-28T09:04:09.243Z,24.03
2022-07-28T09:05:09.919Z,24.21
2022-07-28T09:06:10.425Z,24.47
2022-07-28T09:07:11.080Z,24.58
2022-07-28T09:08:11.587Z,24.86
2022-07-28T09:09:12.316Z,25.14
2022-07-28T09:10:12.582Z,25.41
2022-07-28T09:11:12.534Z,25.66
2022-07-28T09:12:13.459Z,26.01
2022-07-28T09:13:19.262Z,26.23
2022-07-28T09:14:16.211Z,26.39
2022-07-28T09:15:16.621Z,26.67
2022-07-28T09:16:17.709Z,26.76
2022-07-28T09:17:17.547Z,26.93
2022-07-28T09:18:18.212Z,26.97
2022-07-28T09:19:18.925Z,26.98
2022-07-28T09:20:20.160Z,27.01
2022-07-28T09:21:20.231Z,27.23
2022-07-28T09:22:21.475Z,27.5
2022-07-28T09:23:49.523Z,27.82
2022-07-28T09:24:23.537Z,27.97
2022-07-28T09:25:24.053Z,28.1
2022-07-28T09:26:24.005Z,28.34
2022-07-28T09:27:24.240Z,28.53
2022-07-28T09:28:26.042Z,28.77
2022-07-28T09:29:30.086Z,28.92
2022-07-28T09:30:26.730Z,29.12
2022-07-28T09:31:27.976Z,29.27
2022-07-28T09:32:28.402Z,29.27
2022-07-28T09:33:49.367Z,29.31
2022-07-28T09:34:29.985Z,29.37
2022-07-28T09:35:30.209Z,29.58
2022-07-28T09:36:30.852Z,29.71
2022-07-28T09:37:33.615Z,29.94
2022-07-28T09:38:32.810Z,29.99
2022-07-28T09:39:32.553Z,29.8
2022-07-28T09:40:33.064Z,29.73
2022-07-28T09:41:33.271Z,29.55
2022-07-28T09:42:33.491Z,29.46
2022-07-28T09:43:34.411Z,29.13
2022-07-28T09:44:35.353Z,29.13
2022-07-28T09:45:35.324Z,28.83
2022-07-28T09:46:36.992Z,28.67
2022-07-28T09:47:38.284Z,28.7
2022-07-28T09:48:39.191Z,28.74
2022-07-28T09:49:40.671Z,29.07
2022-07-28T09:50:40.380Z,29.3
2022-07-28T09:51:41.038Z,29.49
2022-07-28T09:52:41.273Z,29.76
2022-07-28T09:53:41.941Z,29.81
2022-07-28T09:54:46.934Z,29.69
2022-07-28T09:55:45.581Z,29.68
2022-07-28T09:56:45.102Z,29.69
2022-07-28T09:57:49.118Z,29.87
2022-07-28T09:58:46.377Z,30.11
2022-07-28T09:59:55.641Z,30.23
2022-07-28T10:00:45.929Z,30.43
2022-07-28T10:01:46.352Z,30.48
2022-07-28T10:02:53.449Z,30.62
2022-07-28T10:03:48.163Z,30.65
2022-07-28T10:04:48.972Z,30.77
2022-07-28T10:05:54.340Z,30.81
2022-07-28T10:06:50.002Z,30.81
2022-07-28T10:07:50.246Z,30.86
2022-07-28T10:08:51.198Z,30.91
2022-07-28T10:09:51.931Z,30.99
2022-07-28T10:10:52.205Z,30.89
2022-07-28T10:11:53.181Z,30.56
2022-07-28T10:12:53.434Z,30.32
2022-07-28T10:13:53.654Z,30.08
2022-07-28T10:14:53.619Z,29.92
2022-07-28T10:15:57.217Z,29.62
2022-07-28T10:16:55.622Z,29.58
2022-07-28T10:17:55.239Z,29.58
2022-07-28T10:18:56.202Z,29.31
2022-07-28T10:19:55.783Z,29.35
2022-07-28T10:20:57.013Z,29.22
2022-07-28T10:21:57.252Z,29.15
2022-07-28T10:22:57.776Z,29.24
2022-07-28T10:23:58.701Z,29.12
2022-07-28T10:24:59.656Z,29.1
2022-07-28T10:25:59.600Z,29.12
2022-07-28T10:27:00.911Z,29.3
2022-07-28T10:28:01.551Z,29.43
2022-07-28T10:29:02.188Z,29.61
2022-07-28T10:30:02.887Z,29.76
2022-07-28T10:31:03.741Z,29.95
2022-07-28T10:32:03.555Z,30.17
2022-07-28T10:33:05.069Z,30.36
2022-07-28T10:34:05.498Z,30.49
2022-07-28T10:35:06.415Z,30.59
2022-07-28T10:36:07.637Z,30.49
2022-07-28T10:37:09.463Z,30.43
2022-07-28T10:38:08.916Z,30.55
2022-07-28T10:39:09.840Z,30.52
2022-07-28T10:40:15.814Z,30.67
2022-07-28T10:41:11.050Z,30.74
2022-07-28T10:42:11.288Z,30.92
2022-07-28T10:43:12.150Z,31.1
2022-07-28T10:44:12.539Z,31.2
2022-07-28T10:45:12.758Z,31.14
2022-07-28T10:46:17.531Z,31.25
2022-07-28T10:47:20.074Z,31.13
2022-07-28T10:48:13.755Z,30.96
2022-07-28T10:49:18.309Z,30.8
2022-07-28T10:50:16.989Z,30.78
2022-07-28T10:51:17.053Z,30.76
2022-07-28T10:52:59.286Z,30.93
2022-07-28T10:53:18.284Z,30.99
2022-07-28T10:54:25.525Z,30.85
2022-07-28T10:55:21.008Z,30.81
2022-07-28T10:56:19.471Z,30.76
2022-07-28T10:57:21.247Z,30.67
2022-07-28T10:58:25.538Z,30.56
2022-07-28T10:59:22.429Z,30.21
2022-07-28T11:00:58.099Z,29.84
2022-07-28T11:01:54.808Z,29.57
2022-07-28T11:02:41.727Z,29.34
2022-07-28T11:03:41.807Z,29.35
2022-07-28T11:04:40.828Z,29.12
2022-07-28T11:05:41.047Z,29.2
2022-07-28T11:06:41.566Z,29.18
2022-07-28T11:07:41.809Z,29.1
2022-07-28T11:08:47.815Z,29.12
2022-07-28T11:09:44.511Z,29.37
2022-07-28T11:10:44.108Z,29.58
2022-07-28T11:11:44.473Z,29.77
2022-07-28T11:12:45.421Z,29.98
2022-07-28T11:13:51.801Z,30.21
2022-07-28T11:14:46.532Z,30.23
2022-07-28T11:15:47.926Z,30.27
2022-07-28T11:16:50.296Z,30.03
2022-07-28T11:17:50.684Z,29.81
2022-07-28T11:18:50.315Z,29.67
2022-07-28T11:20:30.539Z,29.53
2022-07-28T11:21:23.625Z,29.62
2022-07-28T11:22:25.413Z,29.44
2022-07-28T11:23:30.563Z,29.55
2022-07-28T11:24:24.756Z,29.55
2022-07-28T11:25:28.095Z,29.69
2022-07-28T11:26:26.019Z,29.79
2022-07-28T11:27:25.953Z,29.9
2022-07-28T11:28:25.890Z,30.03
2022-07-28T11:29:26.836Z,30.2
2022-07-28T11:30:27.997Z,30.38
2022-07-28T11:31:28.713Z,30.46
2022-07-28T11:32:44.487Z,30.59
2022-07-28T11:33:29.540Z,30.67
2022-07-28T11:34:29.764Z,30.73
2022-07-28T11:35:30.040Z,30.85
2022-07-28T11:36:30.307Z,30.86
2022-07-28T11:37:31.280Z,30.99
2022-07-28T11:38:31.501Z,30.98
2022-07-28T11:39:44.175Z,31.14
2022-07-28T11:40:33.506Z,31.15
2022-07-28T11:41:35.816Z,31.3
2022-07-28T11:42:34.748Z,31.18
2022-07-28T11:43:43.227Z,31.08
2022-07-28T11:44:35.945Z,31.1
2022-07-28T11:45:56.294Z,30.91
2022-07-28T11:46:38.681Z,30.96
2022-07-28T11:47:38.008Z,30.96
2022-07-28T11:48:38.676Z,31.02
2022-07-28T11:49:39.106Z,31.13
2022-07-28T11:50:39.947Z,31.28
2022-07-28T11:51:57.934Z,31.41
2022-07-28T11:52:41.272Z,31.57
2022-07-28T11:53:42.209Z,31.73
2022-07-28T11:54:42.876Z,31.87
2022-07-28T11:56:08.022Z,31.86
2022-07-28T11:56:44.232Z,31.82
2022-07-28T11:57:44.850Z,31.57
2022-07-28T11:58:45.954Z,31.57
2022-07-28T11:59:50.060Z,31.57
2022-07-28T12:00:48.024Z,31.6
2022-07-28T12:01:47.431Z,31.72
2022-07-28T12:02:49.068Z,31.74
2022-07-28T12:03:59.496Z,31.86
2022-07-28T12:04:49.542Z,31.85
2022-07-28T12:05:51.306Z,31.79
2022-07-28T12:06:57.207Z,31.63
2022-07-28T12:07:51.526Z,31.52
2022-07-28T12:08:52.215Z,31.41
2022-07-28T12:09:51.861Z,31.29
2022-07-28T12:11:01.451Z,30.91
2022-07-28T12:11:53.285Z,30.85
2022-07-28T12:12:53.529Z,30.78
2022-07-28T12:13:53.757Z,30.78
2022-07-28T12:14:53.995Z,30.86
2022-07-28T12:15:54.555Z,30.95
2022-07-28T12:16:56.750Z,30.73
2022-07-28T12:17:56.868Z,30.69
2022-07-28T12:18:58.134Z,30.73
2022-07-28T12:19:58.674Z,30.67
2022-07-28T12:21:05.492Z,30.62
2022-07-28T12:22:01.454Z,30.8
2022-07-28T12:23:00.235Z,30.89
2022-07-28T12:24:02.841Z,30.99
2022-07-28T12:25:03.636Z,31.11
2022-07-28T12:26:03.469Z,31.11
2022-07-28T12:27:02.314Z,31.17
2022-07-28T12:28:08.411Z,31.14
2022-07-28T12:29:11.658Z,31.28
2022-07-28T12:30:04.683Z,31.39
2022-07-28T12:31:09.330Z,31.54
2022-07-28T12:32:06.533Z,31.54
2022-07-28T12:33:07.050Z,31.74
2022-07-28T12:34:07.275Z,31.66
2022-07-28T12:35:08.173Z,31.52
2022-07-28T12:36:08.111Z,31.45
2022-07-28T12:37:08.656Z,31.3
2022-07-28T12:38:09.694Z,31.14
2022-07-28T12:39:13.623Z,31.2
2022-07-28T12:40:10.940Z,31.18
2022-07-28T12:41:11.565Z,31.23
2022-07-28T12:42:12.384Z,31.37
2022-07-28T12:43:12.611Z,31.51
2022-07-28T12:44:13.336Z,31.59
2022-07-28T12:45:12.953Z,31.52
2022-07-28T12:46:14.530Z,31.51
2022-07-28T12:47:15.365Z,31.63
2022-07-28T12:48:15.596Z,31.59
2022-07-28T12:49:16.697Z,31.67
2022-07-28T12:50:17.141Z,31.62
2022-07-28T12:51:17.989Z,31.78
2022-07-28T12:52:17.741Z,31.87
2022-07-28T12:53:18.215Z,31.82
2022-07-28T12:54:20.337Z,31.92
2022-07-28T12:55:20.271Z,31.7
2022-07-28T12:56:20.909Z,31.44
2022-07-28T12:57:21.425Z,31.29
2022-07-28T12:58:21.387Z,31.26
2022-07-28T12:59:21.614Z,31.29
2022-07-28T13:00:22.077Z,31.37
2022-07-28T13:01:22.266Z,31.37
2022-07-28T13:02:22.987Z,31.5
2022-07-28T13:03:23.055Z,31.37
2022-07-28T13:04:24.113Z,31.26